Haines, AK (99827)

2:11 AM AKDT on May 26, 2015 (GMT -0800)
Pyramid Island View | | Change Station
CLOSE
Current Station
Personal Weather Station
Location: Haines, AK
Elevation: 72 ft
Nearby Weather Stations

Elev 72 ft 59.20 °N, 135.44 °W | Updated 22 minutes ago

Clear
Clear
52.5 °F
Feels Like 52.5 °F
N
0.9
Wind Variable Wind from North
Gusts 0.0 mph

Today
High -- | Low -- °F
--% Chance of Precip.
Yesterday
High -- | Low -- °F
Precip. -- in
4:07 AM 9:51 PM
First Quarter, 57% visible
Pressure 30.07 in
Visibility 10.0 miles
Clouds Clear
Dew Point 46 °F
Humidity 78%
Rainfall 0.00 in
Snow Depth Not available.
UV 0 out of 12
Pollen Not available.
Air Quality Not available.
Flu Activity Local Activity
METAR PAHN 260954Z AUTO 10003KT 10SM CLR 12/08 A3006 RMK AO2 SLP182 T01170078 TSNO

More Conditions Fewer Conditions

Pressure 30.07 in
Visibility 10.0 miles
Clouds Clear
Dew Point 46 °F
Humidity 78%
Rainfall 0.00 in
Snow Depth Not available.
UV 0 out of 12
Pollen Not available.
Air Quality Not available.
Flu Activity Local Activity
METAR PAHN 260954Z AUTO 10003KT 10SM CLR 12/08 A3006 RMK AO2 SLP182 T01170078 TSNO

More Conditions Fewer Conditions

10-Day Weather Forecast

Almanac

Astronomy

May. 26, 2015 Rise Set
Actual Time
Civil Twilight
Nautical Twilight
Astronomical Twilight
Moon
Length of Visible Light
Length of Day
Tomorrow will be .
, % of the Moon is Illuminated

Today's Extremes

State Highs State Lows

Community

WunderPhotos

Upload Photos

1,824,305 photos uploaded!

WunderBlogs® & News

Nearby

Air Quality

  Air Quality AQ Index Pollutant
Not available.

Snow Depth

Station Depth Elevation

Earthquake Activity

City Distance Mag. Time & Date
Minimum magnitude displayed is 2.5.

Coastal Water Temperatures

Place Temperature

Stations

Nearby Weather Stations

Station Location Temp. Windchill Dew Point Humidity Wind Precip. Elev Updated Type